createdAt,value
2018-02-24T00:00:49.002Z,45.97
2018-02-24T00:03:17.389Z,45.63
2018-02-24T00:05:45.854Z,46.00
2018-02-24T00:08:14.354Z,36.80
2018-02-24T00:10:42.752Z,45.80
2018-02-24T00:13:11.225Z,47.17
2018-02-24T00:15:39.627Z,48.72
2018-02-24T00:18:08.035Z,44.00
2018-02-24T00:20:36.472Z,40.38
2018-02-24T00:23:04.866Z,43.45
2018-02-24T00:25:33.374Z,51.60
2018-02-24T00:28:01.800Z,40.00
2018-02-24T00:30:30.228Z,38.35
2018-02-24T00:32:58.625Z,38.22
2018-02-24T00:35:27.026Z,38.40
2018-02-24T00:37:55.562Z,41.63
2018-02-24T00:40:23.975Z,41.45
2018-02-24T00:42:52.441Z,46.30
2018-02-24T00:45:20.881Z,46.60
2018-02-24T00:47:49.299Z,43.55
2018-02-24T00:50:17.822Z,47.53
2018-02-24T00:52:46.331Z,49.03
2018-02-24T00:55:15.072Z,45.67
2018-02-24T00:57:43.472Z,53.13
2018-02-24T01:00:11.958Z,51.58
2018-02-24T01:02:40.373Z,49.45
2018-02-24T01:05:08.795Z,34.40
2018-02-24T01:07:37.346Z,48.17
2018-02-24T01:10:05.744Z,54.17
2018-02-24T01:12:34.153Z,44.92
2018-02-24T01:15:02.640Z,48.00
2018-02-24T01:17:31.048Z,37.83
2018-02-24T01:19:59.702Z,42.05
2018-02-24T01:22:28.105Z,39.65
2018-02-24T01:24:56.608Z,30.40
2018-02-24T01:27:25.019Z,30.75
2018-02-24T01:29:53.470Z,35.05
2018-02-24T01:32:21.945Z,39.42
2018-02-24T01:34:50.351Z,33.50
2018-02-24T01:37:18.821Z,38.83
2018-02-24T01:39:47.290Z,44.05
2018-02-24T01:42:15.737Z,43.90
2018-02-24T01:44:44.140Z,28.02
2018-02-24T01:47:12.650Z,43.67
2018-02-24T01:49:41.083Z,37.30
2018-02-24T01:52:09.451Z,35.10
2018-02-24T01:54:38.081Z,43.53
2018-02-24T01:57:06.502Z,47.88
2018-02-24T01:59:34.950Z,56.30
2018-02-24T02:02:03.328Z,41.05
2018-02-24T02:04:31.908Z,43.33
2018-02-24T02:07:00.396Z,46.78
2018-02-24T02:09:28.783Z,56.85
2018-02-24T02:11:57.202Z,44.45
2018-02-24T02:14:25.569Z,39.33
2018-02-24T02:16:54.205Z,37.28
2018-02-24T02:19:22.711Z,28.27
2018-02-24T02:21:51.139Z,41.47
2018-02-24T02:24:19.631Z,45.42
2018-02-24T02:26:48.091Z,53.90
2018-02-24T02:29:16.536Z,46.78
2018-02-24T02:31:44.958Z,41.22
2018-02-24T02:34:13.363Z,48.08
2018-02-24T02:36:41.867Z,49.33
2018-02-24T02:39:10.401Z,42.90
2018-02-24T02:41:38.919Z,45.78
2018-02-24T02:44:07.288Z,37.63
2018-02-24T02:46:35.706Z,35.42
2018-02-24T02:49:04.088Z,41.30
2018-02-24T02:51:32.556Z,48.22
2018-02-24T02:54:00.998Z,47.45
2018-02-24T02:56:29.386Z,45.40
2018-02-24T02:58:57.884Z,43.92
2018-02-24T03:01:26.387Z,52.40
2018-02-24T03:03:54.860Z,45.85
2018-02-24T03:06:23.260Z,41.47
2018-02-24T03:08:51.674Z,40.67
2018-02-24T03:11:20.050Z,48.25
2018-02-24T03:13:48.672Z,42.10
2018-02-24T03:16:17.224Z,49.38
2018-02-24T03:18:45.632Z,46.85
2018-02-24T03:21:14.076Z,46.83
2018-02-24T03:23:43.426Z,42.47
2018-02-24T03:26:11.986Z,43.15
2018-02-24T03:28:40.445Z,50.83
2018-02-24T03:31:08.858Z,42.62
2018-02-24T03:33:37.276Z,51.20
2018-02-24T03:36:05.658Z,51.42
2018-02-24T03:38:34.064Z,48.75
2018-02-24T03:41:02.546Z,46.55
2018-02-24T03:43:30.942Z,54.20
2018-02-24T03:46:00.278Z,38.95
2018-02-24T03:48:28.662Z,55.92
2018-02-24T03:50:57.143Z,49.20
2018-02-24T03:53:25.554Z,46.03
2018-02-24T03:55:54.296Z,54.70
2018-02-24T03:58:22.740Z,42.58
2018-02-24T04:00:51.207Z,43.58
2018-02-24T04:03:19.600Z,48.35
2018-02-24T04:05:48.036Z,40.65
2018-02-24T04:08:16.428Z,37.85
2018-02-24T04:10:44.838Z,45.50
2018-02-24T04:13:13.316Z,45.20
2018-02-24T04:15:41.700Z,52.70
2018-02-24T04:18:10.196Z,57.20
2018-02-24T04:20:38.593Z,52.20
2018-02-24T04:23:07.134Z,28.33
2018-02-24T04:25:35.573Z,53.95
2018-02-24T04:28:03.946Z,45.08
2018-02-24T04:30:32.360Z,48.38
2018-02-24T04:33:00.767Z,54.35
2018-02-24T04:35:29.332Z,48.17
2018-02-24T04:37:57.764Z,55.03
2018-02-24T04:40:26.267Z,55.58
2018-02-24T04:42:54.653Z,50.00
2018-02-24T04:45:23.147Z,39.70
2018-02-24T04:47:51.608Z,52.20
2018-02-24T04:50:20.006Z,53.92
2018-02-24T04:52:48.431Z,48.17
2018-02-24T04:55:16.993Z,50.88
2018-02-24T04:57:45.393Z,53.55
2018-02-24T05:00:13.868Z,43.30
2018-02-24T05:02:42.288Z,51.75
2018-02-24T05:05:10.682Z,41.53
2018-02-24T05:07:39.124Z,51.13
2018-02-24T05:10:07.526Z,45.12
2018-02-24T05:12:36.998Z,52.10
2018-02-24T05:15:05.643Z,45.58
2018-02-24T05:17:34.058Z,41.08
2018-02-24T05:20:02.457Z,48.65
2018-02-24T05:22:31.012Z,49.90
2018-02-24T05:24:59.421Z,49.47
2018-02-24T05:27:27.826Z,42.83
2018-02-24T05:29:56.219Z,39.42
2018-02-24T05:32:24.633Z,33.03
2018-02-24T05:34:53.094Z,38.13
2018-02-24T05:37:21.501Z,45.83
2018-02-24T05:39:49.915Z,40.67
2018-02-24T05:42:18.321Z,42.92
2018-02-24T05:44:46.723Z,39.00
2018-02-24T05:47:15.500Z,42.42
2018-02-24T05:49:43.898Z,46.72
2018-02-24T05:52:12.314Z,36.60
2018-02-24T05:54:40.716Z,42.80
2018-02-24T05:57:09.160Z,48.08
2018-02-24T05:59:37.655Z,45.53
2018-02-24T06:02:06.046Z,45.05
2018-02-24T06:04:34.428Z,35.45
2018-02-24T06:07:02.807Z,41.10
2018-02-24T06:09:31.337Z,44.05
2018-02-24T06:11:59.838Z,37.20
2018-02-24T06:14:28.345Z,45.92
2018-02-24T06:16:56.760Z,42.70
2018-02-24T06:19:25.178Z,45.85
2018-02-24T06:21:53.664Z,41.13
2018-02-24T06:24:22.068Z,43.17
2018-02-24T06:26:50.629Z,46.42
2018-02-24T06:29:19.049Z,32.85
2018-02-24T06:31:47.515Z,39.40
2018-02-24T06:34:15.938Z,48.28
2018-02-24T06:36:44.315Z,46.50
2018-02-24T06:39:12.713Z,44.17
2018-02-24T06:41:41.190Z,51.35
2018-02-24T06:44:09.777Z,42.60
2018-02-24T06:46:38.175Z,52.05
2018-02-24T06:49:06.730Z,40.95
2018-02-24T06:51:35.157Z,48.83
2018-02-24T06:54:03.557Z,48.42
2018-02-24T06:56:31.950Z,43.17
2018-02-24T06:59:00.355Z,44.25
2018-02-24T07:01:28.841Z,24.70
2018-02-24T07:03:57.239Z,23.42
2018-02-24T07:06:25.645Z,36.30
2018-02-24T07:08:54.052Z,26.58
2018-02-24T07:11:22.528Z,36.10
2018-02-24T07:13:50.975Z,31.50
2018-02-24T07:16:19.682Z,37.50
2018-02-24T07:18:48.120Z,46.63
2018-02-24T07:21:16.506Z,25.20
2018-02-24T07:23:44.998Z,34.90
2018-02-24T07:26:13.412Z,35.95
2018-02-24T07:28:41.835Z,43.03
2018-02-24T07:31:13.861Z,37.35
2018-02-24T07:33:42.263Z,43.70
2018-02-24T07:36:10.675Z,39.30
2018-02-24T07:38:39.052Z,31.15
2018-02-24T07:41:07.442Z,23.23
2018-02-24T07:43:35.944Z,41.97
2018-02-24T07:46:04.375Z,33.30
2018-02-24T07:48:32.838Z,32.45
2018-02-24T07:51:01.289Z,30.35
2018-02-24T07:53:29.706Z,32.65
2018-02-24T07:55:58.503Z,27.70
2018-02-24T07:58:27.006Z,24.75
2018-02-24T08:00:55.438Z,32.47
2018-02-24T08:03:23.902Z,34.40
2018-02-24T08:05:52.393Z,34.65
2018-02-24T08:08:20.963Z,28.33
2018-02-24T08:10:49.398Z,32.78
2018-02-24T08:13:17.831Z,34.58
2018-02-24T08:15:46.271Z,32.97
2018-02-24T08:18:14.667Z,16.50
2018-02-24T08:20:43.158Z,30.50
2018-02-24T08:23:11.569Z,21.20
2018-02-24T08:25:39.983Z,25.52
2018-02-24T08:28:08.388Z,26.75
2018-02-24T08:30:36.787Z,27.90
2018-02-24T08:33:05.271Z,25.30
2018-02-24T08:35:33.663Z,26.65
2018-02-24T08:38:02.089Z,28.73
2018-02-24T08:40:30.485Z,27.00
2018-02-24T08:42:58.918Z,27.20
2018-02-24T08:45:27.387Z,26.37
2018-02-24T08:47:55.787Z,34.13
2018-02-24T08:50:24.254Z,27.50
2018-02-24T08:52:52.748Z,29.75
2018-02-24T08:55:21.163Z,28.20
2018-02-24T08:57:49.636Z,38.03
2018-02-24T09:00:18.029Z,25.70
2018-02-24T09:02:46.441Z,28.60
2018-02-24T09:05:14.845Z,27.65
2018-02-24T09:07:43.272Z,23.50
2018-02-24T09:10:11.720Z,24.75
2018-02-24T09:12:40.104Z,17.42
2018-02-24T09:15:08.607Z,21.50
2018-02-24T09:17:37.070Z,18.70
2018-02-24T09:20:05.511Z,18.75
2018-02-24T09:22:33.918Z,15.90
2018-02-24T09:25:02.519Z,17.52
2018-02-24T09:27:31.271Z,19.80
2018-02-24T09:29:59.924Z,17.50
2018-02-24T09:32:28.471Z,16.48
2018-02-24T09:34:56.840Z,25.65
2018-02-24T09:37:25.252Z,14.75
2018-02-24T09:39:54.100Z,17.42
2018-02-24T09:42:22.512Z,16.95
2018-02-24T09:44:50.904Z,12.60
2018-02-24T09:47:19.287Z,13.38
2018-02-24T09:49:47.679Z,18.77
2018-02-24T09:52:16.149Z,11.93
2018-02-24T09:54:44.548Z,14.43
2018-02-24T09:57:12.947Z,14.50
2018-02-24T09:59:41.358Z,13.23
2018-02-24T10:02:09.831Z,17.48
2018-02-24T10:04:38.312Z,16.98
2018-02-24T10:07:06.709Z,18.67
2018-02-24T10:09:35.113Z,16.73
2018-02-24T10:12:03.516Z,16.52
2018-02-24T10:14:32.006Z,15.57
2018-02-24T10:17:00.488Z,16.25
2018-02-24T10:19:28.889Z,21.20
2018-02-24T10:21:57.458Z,12.82
2018-02-24T10:24:25.848Z,25.12
2018-02-24T10:26:54.244Z,15.00
2018-02-24T10:29:22.712Z,21.77
2018-02-24T10:31:51.118Z,18.25
2018-02-24T10:34:19.492Z,12.40
2018-02-24T10:36:47.892Z,15.98
2018-02-24T10:39:16.287Z,16.00
2018-02-24T10:41:44.780Z,12.00
2018-02-24T10:44:13.210Z,13.43
2018-02-24T10:46:41.660Z,14.57
2018-02-24T10:49:14.838Z,14.60
2018-02-24T10:51:43.312Z,12.02
2018-02-24T10:54:11.735Z,16.92
2018-02-24T10:56:40.132Z,13.20
2018-02-24T10:59:08.692Z,13.30
2018-02-24T11:01:37.180Z,13.05
2018-02-24T11:04:05.608Z,13.57
2018-02-24T11:06:34.020Z,14.52
2018-02-24T11:09:02.485Z,12.45
2018-02-24T11:11:30.949Z,13.13
2018-02-24T11:13:59.372Z,15.85
2018-02-24T11:16:27.850Z,16.35
2018-02-24T11:18:56.259Z,13.02
2018-02-24T11:21:24.662Z,10.07
2018-02-24T11:23:53.205Z,11.48
2018-02-24T11:26:21.608Z,10.18
2018-02-24T11:28:50.002Z,17.70
2018-02-24T11:31:18.540Z,13.27
2018-02-24T11:33:46.899Z,12.10
2018-02-24T11:36:15.469Z,14.93
2018-02-24T11:38:43.875Z,17.85
2018-02-24T11:41:12.267Z,12.52
2018-02-24T11:43:40.669Z,9.80
2018-02-24T11:46:09.151Z,8.80
2018-02-24T11:48:37.623Z,5.97
2018-02-24T11:51:06.038Z,11.02
2018-02-24T11:53:34.532Z,8.93
2018-02-24T11:56:03.002Z,7.70
2018-02-24T11:58:31.474Z,7.35
2018-02-24T12:00:59.985Z,7.53
2018-02-24T12:03:28.388Z,12.82
2018-02-24T12:05:56.942Z,10.15
2018-02-24T12:08:25.328Z,13.07
2018-02-24T12:10:53.694Z,9.80
2018-02-24T12:13:22.114Z,12.65
2018-02-24T12:15:50.561Z,11.10
2018-02-24T12:18:18.999Z,12.18
2018-02-24T12:20:47.416Z,12.50
2018-02-24T12:23:15.833Z,14.68
2018-02-24T12:25:44.236Z,15.82
2018-02-24T12:28:12.648Z,12.57
2018-02-24T12:30:41.114Z,15.95
2018-02-24T12:33:09.491Z,14.82
2018-02-24T12:35:38.936Z,15.30
2018-02-24T12:38:07.335Z,13.15
2018-02-24T12:40:35.811Z,12.88
2018-02-24T12:43:04.183Z,10.10
2018-02-24T12:45:32.690Z,10.50
2018-02-24T12:48:01.063Z,13.93
2018-02-24T12:50:29.441Z,14.13
2018-02-24T12:52:57.876Z,15.18
2018-02-24T12:55:26.293Z,14.00
2018-02-24T12:57:54.798Z,14.82
2018-02-24T13:00:23.201Z,16.08
2018-02-24T13:02:51.696Z,19.85
2018-02-24T13:05:20.084Z,15.85
2018-02-24T13:07:48.472Z,19.58
2018-02-24T13:10:17.269Z,13.43
2018-02-24T13:12:45.665Z,16.95
2018-02-24T13:15:14.075Z,14.95
2018-02-24T13:17:42.481Z,13.85
2018-02-24T13:20:10.870Z,12.98
2018-02-24T13:22:39.342Z,14.75
2018-02-24T13:25:07.804Z,49.30
2018-02-24T13:27:36.239Z,15.90
2018-02-24T13:30:04.623Z,20.45
2018-02-24T13:32:33.032Z,17.05
2018-02-24T13:35:01.495Z,13.13
2018-02-24T13:37:29.916Z,15.48
2018-02-24T13:39:58.305Z,12.93
2018-02-24T13:42:26.702Z,17.80
2018-02-24T13:44:55.120Z,12.98
2018-02-24T13:47:23.618Z,16.10
2018-02-24T13:49:52.124Z,13.88
2018-02-24T13:52:20.524Z,15.77
2018-02-24T13:54:48.910Z,15.30
2018-02-24T13:57:17.411Z,15.73
2018-02-24T13:59:45.926Z,20.62
2018-02-24T14:02:14.459Z,18.15
2018-02-24T14:04:42.835Z,16.52
2018-02-24T14:07:11.218Z,12.75
2018-02-24T14:09:39.659Z,12.32
2018-02-24T14:12:08.208Z,11.77
2018-02-24T14:14:36.618Z,16.42
2018-02-24T14:17:05.014Z,14.00
2018-02-24T14:19:33.411Z,13.55
2018-02-24T14:22:01.804Z,18.10
2018-02-24T14:24:30.420Z,13.55
2018-02-24T14:26:58.818Z,17.35
2018-02-24T14:29:27.223Z,12.95
2018-02-24T14:31:55.790Z,11.70
2018-02-24T14:34:24.279Z,16.80
2018-02-24T14:36:52.722Z,10.82
2018-02-24T14:39:21.246Z,14.02
2018-02-24T14:41:49.643Z,11.43
2018-02-24T14:44:18.129Z,9.30
2018-02-24T14:46:46.552Z,9.18
2018-02-24T14:49:15.005Z,12.88
2018-02-24T14:51:43.549Z,11.25
2018-02-24T14:54:12.906Z,10.82
2018-02-24T14:56:41.324Z,13.57
2018-02-24T14:59:09.725Z,9.98
2018-02-24T15:01:38.313Z,13.45
2018-02-24T15:04:06.764Z,14.02
2018-02-24T15:06:35.175Z,13.35
2018-02-24T15:09:03.694Z,14.70
2018-02-24T15:11:32.145Z,8.80
2018-02-24T15:14:00.571Z,11.93
2018-02-24T15:16:28.932Z,10.68
2018-02-24T15:18:57.417Z,12.52
2018-02-24T15:21:25.873Z,14.95
2018-02-24T15:23:54.343Z,19.60
2018-02-24T15:26:22.754Z,11.23
2018-02-24T15:28:51.382Z,11.52
2018-02-24T15:31:19.878Z,13.20
2018-02-24T15:36:22.951Z,10.63
2018-02-24T15:38:51.372Z,12.13
2018-02-24T15:41:19.779Z,10.52
2018-02-24T15:43:48.195Z,11.57
2018-02-24T15:46:16.606Z,12.85
2018-02-24T15:48:45.081Z,11.55
2018-02-24T15:51:13.468Z,10.27
2018-02-24T15:53:41.891Z,11.00
2018-02-24T15:56:10.386Z,10.40
2018-02-24T15:58:38.908Z,6.72
2018-02-24T16:01:07.285Z,8.00
2018-02-24T16:03:35.706Z,11.20
2018-02-24T16:06:04.116Z,11.02
2018-02-24T16:08:32.513Z,14.73
2018-02-24T16:11:01.158Z,8.80
2018-02-24T16:13:29.531Z,6.60
2018-02-24T16:15:57.889Z,7.87
2018-02-24T16:18:26.297Z,10.23
2018-02-24T16:20:54.699Z,6.97
2018-02-24T16:23:23.333Z,6.18
2018-02-24T16:25:51.754Z,11.63
2018-02-24T16:28:20.251Z,6.28
2018-02-24T16:30:48.760Z,5.90
2018-02-24T16:33:17.146Z,5.20
2018-02-24T16:35:45.761Z,13.20
2018-02-24T16:38:14.141Z,6.53
2018-02-24T16:40:42.707Z,5.43
2018-02-24T16:43:11.200Z,10.02
2018-02-24T16:45:39.616Z,4.15
2018-02-24T16:48:08.020Z,9.43
2018-02-24T16:50:36.421Z,15.45
2018-02-24T16:53:05.000Z,3.30
2018-02-24T16:55:33.430Z,7.15
2018-02-24T16:58:01.833Z,5.07
2018-02-24T17:00:30.205Z,6.97
2018-02-24T17:02:58.679Z,4.87
2018-02-24T17:05:27.224Z,9.10
2018-02-24T17:07:55.708Z,8.82
2018-02-24T17:10:24.097Z,4.70
2018-02-24T17:12:52.508Z,4.47
2018-02-24T17:15:20.928Z,14.25
2018-02-24T17:17:49.470Z,3.58
2018-02-24T17:20:17.834Z,2.67
2018-02-24T17:22:46.320Z,2.60
2018-02-24T17:25:14.780Z,4.57
2018-02-24T17:27:43.167Z,7.72
2018-02-24T17:30:12.087Z,5.30
2018-02-24T17:32:40.700Z,3.10
2018-02-24T17:35:09.394Z,5.25
2018-02-24T17:37:37.947Z,6.43
2018-02-24T17:40:06.731Z,4.80
2018-02-24T17:42:35.331Z,1.60
2018-02-24T17:45:03.921Z,3.45
2018-02-24T17:47:32.456Z,5.68
2018-02-24T17:50:01.078Z,4.72
2018-02-24T17:52:29.626Z,2.78
2018-02-24T17:54:58.297Z,4.55
2018-02-24T17:57:26.913Z,1.90
2018-02-24T17:59:55.503Z,10.15
2018-02-24T18:02:24.355Z,6.47
2018-02-24T18:04:53.203Z,5.57
2018-02-24T18:07:21.906Z,5.10
2018-02-24T18:09:50.450Z,3.05
2018-02-24T18:12:19.090Z,4.95
2018-02-24T18:14:47.657Z,2.78
2018-02-24T18:17:16.300Z,10.15
2018-02-24T18:19:45.116Z,5.32
2018-02-24T18:22:13.681Z,4.00
2018-02-24T18:24:42.413Z,2.80
2018-02-24T18:27:11.008Z,5.07
2018-02-24T18:29:39.780Z,5.15
2018-02-24T18:32:08.630Z,4.90
2018-02-24T18:34:37.684Z,4.28
2018-02-24T18:37:06.425Z,7.90
2018-02-24T18:39:35.032Z,3.20
2018-02-24T18:42:03.716Z,5.93
2018-02-24T18:44:32.505Z,4.05
2018-02-24T18:47:01.388Z,4.03
2018-02-24T18:49:30.267Z,4.28
2018-02-24T18:51:59.064Z,3.83
2018-02-24T18:54:27.745Z,4.78
2018-02-24T18:56:56.136Z,3.10
2018-02-24T18:59:24.603Z,5.43
2018-02-24T19:01:53.073Z,9.35
2018-02-24T19:04:21.473Z,5.80
2018-02-24T19:06:49.949Z,5.12
2018-02-24T19:09:18.357Z,4.43
2018-02-24T19:11:46.764Z,8.30
2018-02-24T19:14:15.230Z,9.82
2018-02-24T19:16:43.705Z,8.30
2018-02-24T19:19:12.067Z,2.75
2018-02-24T19:21:40.473Z,6.22
2018-02-24T19:24:08.867Z,3.90
2018-02-24T19:26:37.384Z,3.70
2018-02-24T19:29:05.795Z,7.70
2018-02-24T19:31:34.187Z,5.95
2018-02-24T19:34:02.586Z,5.55
2018-02-24T19:36:31.003Z,5.28
2018-02-24T19:38:59.437Z,8.25
2018-02-24T19:41:27.917Z,4.05
2018-02-24T19:43:56.464Z,5.00
2018-02-24T19:46:24.819Z,6.05
2018-02-24T19:48:53.240Z,5.57
2018-02-24T19:51:21.631Z,6.35
2018-02-24T19:53:50.090Z,4.03
2018-02-24T19:56:18.613Z,6.37
2018-02-24T19:58:47.017Z,6.60
2018-02-24T20:01:15.433Z,5.00
2018-02-24T20:03:43.842Z,5.60
2018-02-24T20:06:12.244Z,10.25
2018-02-24T20:08:40.788Z,7.03
2018-02-24T20:11:09.848Z,8.70
2018-02-24T20:13:38.243Z,4.22
2018-02-24T20:16:06.654Z,3.12
2018-02-24T20:18:35.065Z,6.25
2018-02-24T20:21:03.663Z,2.92
2018-02-24T20:23:32.144Z,6.70
2018-02-24T20:26:00.559Z,2.30
2018-02-24T20:28:28.950Z,7.18
2018-02-24T20:30:57.328Z,4.22
2018-02-24T20:33:25.844Z,5.37
2018-02-24T20:35:54.231Z,9.50
2018-02-24T20:38:22.614Z,6.70
2018-02-24T20:40:50.998Z,6.05
2018-02-24T20:43:19.406Z,7.03
2018-02-24T20:45:47.860Z,5.97
2018-02-24T20:48:16.265Z,6.22
2018-02-24T20:50:44.680Z,5.03
2018-02-24T20:53:13.083Z,10.55
2018-02-24T20:55:41.468Z,5.72
2018-02-24T20:58:09.948Z,4.72
2018-02-24T21:00:38.335Z,5.18
2018-02-24T21:03:06.732Z,6.75
2018-02-24T21:05:35.210Z,8.07
2018-02-24T21:08:03.616Z,5.53
2018-02-24T21:10:32.085Z,5.32
2018-02-24T21:13:00.540Z,7.40
2018-02-24T21:15:28.934Z,5.57
2018-02-24T21:17:57.344Z,5.57
2018-02-24T21:20:25.729Z,4.30
2018-02-24T21:22:54.202Z,5.80
2018-02-24T21:25:22.676Z,7.22
2018-02-24T21:27:51.067Z,4.60
2018-02-24T21:30:19.492Z,5.25
2018-02-24T21:32:47.879Z,3.97
2018-02-24T21:35:16.415Z,7.53
2018-02-24T21:37:44.851Z,4.95
2018-02-24T21:40:13.326Z,9.60
2018-02-24T21:42:41.783Z,5.60
2018-02-24T21:45:10.196Z,6.50
2018-02-24T21:47:38.655Z,13.05
2018-02-24T21:50:07.083Z,11.68
2018-02-24T21:52:35.486Z,10.98
2018-02-24T21:55:03.899Z,9.20
2018-02-24T21:57:32.299Z,6.62
2018-02-24T22:00:00.864Z,6.12
2018-02-24T22:02:29.254Z,4.53
2018-02-24T22:04:57.646Z,5.43
2018-02-24T22:07:26.153Z,9.38
2018-02-24T22:09:54.527Z,5.87
2018-02-24T22:12:23.099Z,5.78
2018-02-24T22:14:51.477Z,5.43
2018-02-24T22:17:19.879Z,5.00
2018-02-24T22:19:48.349Z,11.07
2018-02-24T22:22:16.740Z,8.27
2018-02-24T22:24:45.207Z,11.05
2018-02-24T22:27:13.616Z,5.57
2018-02-24T22:29:42.010Z,9.32
2018-02-24T22:32:10.412Z,8.60
2018-02-24T22:34:38.800Z,10.32
2018-02-24T22:37:07.288Z,7.95
2018-02-24T22:39:35.688Z,10.07
2018-02-24T22:42:04.136Z,7.05
2018-02-24T22:44:32.496Z,8.40
2018-02-24T22:47:00.882Z,13.70
2018-02-24T22:49:29.284Z,6.95
2018-02-24T22:51:57.666Z,13.68
2018-02-24T22:54:26.174Z,9.80
2018-02-24T22:56:54.544Z,9.55
2018-02-24T22:59:23.022Z,7.87
2018-02-24T23:01:51.429Z,11.68
2018-02-24T23:04:19.795Z,7.32
2018-02-24T23:06:48.342Z,10.38
2018-02-24T23:09:16.731Z,8.25
2018-02-24T23:11:45.125Z,9.82
2018-02-24T23:14:13.535Z,6.53
2018-02-24T23:16:41.935Z,8.43
2018-02-24T23:19:10.471Z,6.85
2018-02-24T23:21:38.854Z,8.40
2018-02-24T23:24:07.258Z,11.55
2018-02-24T23:26:35.646Z,4.50
2018-02-24T23:29:04.009Z,9.38
2018-02-24T23:31:32.431Z,10.25
2018-02-24T23:34:00.917Z,6.72
2018-02-24T23:36:29.316Z,8.40
2018-02-24T23:38:57.723Z,8.23
2018-02-24T23:41:26.141Z,8.07
2018-02-24T23:43:54.559Z,6.90
2018-02-24T23:46:22.991Z,11.12
2018-02-24T23:48:51.402Z,7.68
2018-02-24T23:51:19.810Z,8.32
2018-02-24T23:53:48.240Z,5.03
2018-02-24T23:56:16.695Z,9.68
2018-02-24T23:58:45.058Z,12.25
